createdAt,value
2023-03-22T00:00:47.811Z,6.70
2023-03-22T00:03:15.289Z,7.63
2023-03-22T00:05:44.121Z,6.93
2023-03-22T00:08:13.314Z,7.20
2023-03-22T00:13:43.869Z,7.37
2023-03-22T00:16:11.753Z,7.07
2023-03-22T00:18:39.228Z,6.90
2023-03-22T00:21:12.090Z,7.27
2023-03-22T00:26:36.117Z,7.17
2023-03-22T00:29:04.768Z,7.00
2023-03-22T00:34:32.131Z,7.03
2023-03-22T00:37:02.122Z,7.00
2023-03-22T00:39:29.975Z,6.83
2023-03-22T00:41:57.464Z,7.00
2023-03-22T00:44:25.265Z,7.20
2023-03-22T00:49:55.596Z,6.27
2023-03-22T00:52:25.207Z,7.77
2023-03-22T00:54:52.705Z,6.63
2023-03-22T00:57:20.476Z,7.93
2023-03-22T00:59:48.174Z,7.20
2023-03-22T01:02:15.911Z,7.70
2023-03-22T01:04:46.182Z,7.00
2023-03-22T01:07:17.906Z,7.03
2023-03-22T01:09:46.660Z,7.20
2023-03-22T01:12:16.459Z,7.50
2023-03-22T01:14:44.358Z,7.33
2023-03-22T01:20:12.250Z,7.60
2023-03-22T01:22:39.726Z,7.50
2023-03-22T01:25:09.661Z,7.13
2023-03-22T01:27:37.214Z,6.67
2023-03-22T01:30:05.651Z,6.80
2023-03-22T01:32:33.268Z,6.67
2023-03-22T01:38:13.640Z,7.20
2023-03-22T01:40:52.016Z,7.27
2023-03-22T01:43:19.624Z,6.87
2023-03-22T01:45:48.945Z,7.30
2023-03-22T01:51:25.834Z,6.93
2023-03-22T01:57:04.191Z,6.87
2023-03-22T01:59:41.371Z,7.60
2023-03-22T02:02:19.027Z,6.87
2023-03-22T02:04:57.916Z,7.10
2023-03-22T02:10:12.113Z,7.27
2023-03-22T02:15:59.903Z,7.27
2023-03-22T02:18:51.903Z,6.63
2023-03-22T02:21:32.862Z,6.67
2023-03-22T02:24:24.659Z,6.57
2023-03-22T02:27:07.403Z,6.70
2023-03-22T02:29:41.382Z,6.67
2023-03-22T02:35:34.906Z,7.00
2023-03-22T02:38:17.523Z,6.57
2023-03-22T02:40:51.627Z,6.93
2023-03-22T02:43:26.066Z,7.20
2023-03-22T02:45:57.256Z,7.00
2023-03-22T02:48:28.612Z,6.50
2023-03-22T02:53:49.190Z,6.80
2023-03-22T02:56:21.372Z,6.43
2023-03-22T02:58:51.848Z,7.20
2023-03-22T03:01:23.022Z,6.17
2023-03-22T03:03:51.949Z,6.60
2023-03-22T03:06:21.357Z,6.67
2023-03-22T03:08:51.614Z,6.67
2023-03-22T03:11:21.512Z,6.10
2023-03-22T03:13:50.719Z,6.90
2023-03-22T03:16:21.394Z,6.83
2023-03-22T03:18:52.302Z,7.13
2023-03-22T03:21:32.464Z,6.93
2023-03-22T03:24:19.730Z,7.33
2023-03-22T03:26:55.480Z,6.97
2023-03-22T03:32:29.065Z,6.73
2023-03-22T03:34:59.275Z,7.30
2023-03-22T03:40:31.873Z,7.27
2023-03-22T03:43:03.806Z,7.83
2023-03-22T03:45:31.838Z,6.50
2023-03-22T03:48:02.155Z,7.50
2023-03-22T03:50:29.842Z,7.00
2023-03-22T03:55:46.170Z,6.80
2023-03-22T03:58:16.688Z,7.37
2023-03-22T04:00:46.502Z,7.47
2023-03-22T04:03:23.020Z,7.53
2023-03-22T04:06:12.662Z,8.20
2023-03-22T04:11:44.083Z,7.90
2023-03-22T04:17:16.047Z,7.40
2023-03-22T04:19:44.591Z,7.30
2023-03-22T04:22:14.679Z,7.80
2023-03-22T04:25:19.533Z,8.47
2023-03-22T04:27:56.819Z,7.60
2023-03-22T04:33:32.403Z,7.13
2023-03-22T04:36:18.070Z,7.97
2023-03-22T04:39:05.854Z,8.40
2023-03-22T04:41:33.987Z,8.27
2023-03-22T04:44:03.075Z,7.67
2023-03-22T04:46:33.304Z,8.27
2023-03-22T04:49:06.750Z,8.20
2023-03-22T04:54:37.553Z,7.77
2023-03-22T04:57:05.496Z,7.63
2023-03-22T04:59:38.784Z,8.07
2023-03-22T05:02:06.319Z,8.67
2023-03-22T05:04:42.220Z,8.03
2023-03-22T05:07:19.146Z,8.87
2023-03-22T05:09:52.059Z,7.90
2023-03-22T05:12:19.686Z,8.53
2023-03-22T05:17:56.611Z,8.23
2023-03-22T05:20:25.916Z,7.93
2023-03-22T05:23:27.182Z,7.70
2023-03-22T05:25:58.157Z,7.87
2023-03-22T05:28:28.371Z,8.53
2023-03-22T05:31:11.540Z,8.97
2023-03-22T05:33:47.332Z,8.50
2023-03-22T05:36:20.338Z,8.63
2023-03-22T05:39:09.611Z,7.90
2023-03-22T05:42:14.549Z,8.10
2023-03-22T05:44:42.159Z,7.93
2023-03-22T05:50:17.746Z,7.60
2023-03-22T05:52:46.781Z,7.43
2023-03-22T05:55:34.543Z,7.30
2023-03-22T05:58:05.202Z,7.57
2023-03-22T06:03:29.116Z,7.93
2023-03-22T06:06:01.890Z,7.63
2023-03-22T06:08:41.668Z,7.70
2023-03-22T06:11:09.823Z,7.03
2023-03-22T06:13:38.200Z,7.13
2023-03-22T06:16:07.900Z,7.73
2023-03-22T06:18:35.795Z,6.97
2023-03-22T06:21:08.976Z,8.20
2023-03-22T06:23:37.774Z,7.63
2023-03-22T06:26:06.779Z,8.47
2023-03-22T06:31:33.113Z,7.90
2023-03-22T06:37:07.702Z,8.27
2023-03-22T06:39:38.602Z,7.90
2023-03-22T06:42:07.408Z,7.77
2023-03-22T06:44:35.348Z,7.73
2023-03-22T06:50:15.783Z,7.47
2023-03-22T06:56:11.687Z,7.03
2023-03-22T06:58:51.688Z,8.73
2023-03-22T07:01:19.553Z,9.23
2023-03-22T07:03:47.235Z,7.27
2023-03-22T07:06:16.822Z,7.63
2023-03-22T07:08:50.686Z,6.87
2023-03-22T07:11:22.084Z,7.30
2023-03-22T07:13:58.488Z,7.07
2023-03-22T07:16:29.413Z,7.33
2023-03-22T07:18:59.811Z,7.23
2023-03-22T07:21:27.342Z,6.80
2023-03-22T07:23:58.639Z,7.10
2023-03-22T07:26:30.436Z,7.07
2023-03-22T07:31:59.012Z,6.90
2023-03-22T07:34:32.691Z,7.57
2023-03-22T07:37:25.584Z,6.90
2023-03-22T07:39:53.155Z,6.57
2023-03-22T07:42:20.722Z,6.37
2023-03-22T07:45:09.183Z,7.43
2023-03-22T07:50:50.199Z,6.83
2023-03-22T07:53:17.667Z,7.60
2023-03-22T07:55:45.233Z,7.07
2023-03-22T07:58:12.939Z,7.10
2023-03-22T08:00:40.895Z,6.63
2023-03-22T08:03:28.538Z,7.27
2023-03-22T08:06:07.966Z,6.80
2023-03-22T08:08:37.726Z,7.20
2023-03-22T08:11:05.999Z,6.90
2023-03-22T08:13:34.040Z,6.50
2023-03-22T08:16:01.807Z,6.93
2023-03-22T08:18:31.345Z,6.67
2023-03-22T08:21:00.211Z,6.60
2023-03-22T08:23:41.417Z,6.07
2023-03-22T08:26:27.933Z,6.77
2023-03-22T08:28:58.224Z,6.07
2023-03-22T08:34:24.586Z,6.80
2023-03-22T08:36:52.651Z,7.07
2023-03-22T08:42:19.950Z,6.30
2023-03-22T08:44:47.645Z,6.23
2023-03-22T08:47:15.435Z,6.33
2023-03-22T08:52:46.628Z,6.90
2023-03-22T08:55:24.734Z,7.03
2023-03-22T08:58:12.702Z,6.73
2023-03-22T09:01:13.266Z,6.60
2023-03-22T09:06:52.675Z,6.37
2023-03-22T09:09:20.241Z,6.20
2023-03-22T09:12:07.283Z,6.33
2023-03-22T09:14:37.599Z,6.37
2023-03-22T09:17:05.530Z,6.20
2023-03-22T09:19:33.355Z,6.17
2023-03-22T09:22:01.913Z,6.03
2023-03-22T09:24:41.032Z,5.80
2023-03-22T09:27:08.549Z,5.17
2023-03-22T09:29:37.383Z,5.17
2023-03-22T09:32:09.080Z,4.73
2023-03-22T09:34:39.341Z,4.63
2023-03-22T09:37:07.607Z,4.60
2023-03-22T09:39:49.766Z,4.60
2023-03-22T09:45:29.882Z,3.80
2023-03-22T09:47:58.324Z,3.63
2023-03-22T09:50:27.626Z,3.50
2023-03-22T09:56:03.057Z,3.70
2023-03-22T09:58:34.506Z,3.60
2023-03-22T10:01:05.451Z,3.73
2023-03-22T10:06:31.958Z,3.83
2023-03-22T10:09:07.678Z,3.30
2023-03-22T10:11:44.403Z,3.80
2023-03-22T10:14:24.916Z,3.63
2023-03-22T10:16:56.649Z,3.53
2023-03-22T10:19:28.069Z,3.80
2023-03-22T10:21:57.274Z,3.37
2023-03-22T10:24:28.160Z,3.53
2023-03-22T10:26:55.945Z,3.53
2023-03-22T10:29:25.338Z,4.00
2023-03-22T10:31:55.499Z,3.37
2023-03-22T10:34:24.431Z,4.07
2023-03-22T10:36:53.267Z,3.50
2023-03-22T10:39:28.454Z,3.50
2023-03-22T10:41:58.240Z,3.30
2023-03-22T10:44:27.572Z,3.53
2023-03-22T10:46:56.977Z,3.63
2023-03-22T10:49:27.690Z,3.60
2023-03-22T10:55:01.217Z,3.30
2023-03-22T10:57:29.821Z,3.80
2023-03-22T10:59:58.030Z,3.50
2023-03-22T11:02:28.538Z,3.40
2023-03-22T11:04:58.515Z,3.50
2023-03-22T11:10:32.466Z,3.60
2023-03-22T11:16:09.726Z,3.60
2023-03-22T11:18:42.396Z,3.53
2023-03-22T11:21:12.208Z,3.70
2023-03-22T11:23:42.685Z,3.33
2023-03-22T11:29:16.379Z,3.67
2023-03-22T11:31:56.967Z,3.00
2023-03-22T11:34:27.820Z,2.87
2023-03-22T11:36:57.384Z,3.20
2023-03-22T11:39:28.173Z,3.10
2023-03-22T11:41:59.921Z,3.33
2023-03-22T11:44:28.411Z,3.00
2023-03-22T11:46:57.786Z,2.70
2023-03-22T11:49:29.126Z,3.13
2023-03-22T11:51:57.012Z,3.17
2023-03-22T11:57:26.285Z,3.03
2023-03-22T11:59:57.721Z,3.30
2023-03-22T12:02:27.751Z,3.37
2023-03-22T12:05:01.670Z,3.20
2023-03-22T12:10:29.738Z,2.87
2023-03-22T12:13:00.283Z,3.00
2023-03-22T12:15:30.579Z,2.60
2023-03-22T12:18:01.985Z,3.20
2023-03-22T12:20:37.499Z,2.87
2023-03-22T12:23:13.626Z,2.73
2023-03-22T12:25:42.138Z,2.83
2023-03-22T12:28:13.973Z,2.60
2023-03-22T12:30:44.470Z,2.67
2023-03-22T12:33:17.681Z,2.70
2023-03-22T12:35:47.161Z,2.50
2023-03-22T12:41:13.706Z,2.70
2023-03-22T12:46:49.403Z,3.40
2023-03-22T12:49:22.567Z,3.10
2023-03-22T12:51:52.992Z,2.80
2023-03-22T12:54:22.864Z,3.10
2023-03-22T12:59:50.768Z,2.53
2023-03-22T13:02:21.486Z,2.80
2023-03-22T13:04:54.601Z,2.67
2023-03-22T13:07:38.106Z,2.50
2023-03-22T13:10:47.568Z,2.47
2023-03-22T13:13:43.080Z,2.93
2023-03-22T13:16:24.619Z,3.73
2023-03-22T13:19:01.740Z,4.60
2023-03-22T13:21:31.064Z,4.97
2023-03-22T13:24:02.254Z,5.23
2023-03-22T13:26:36.327Z,4.70
2023-03-22T13:31:58.506Z,8.50
2023-03-22T13:34:37.385Z,7.10
2023-03-22T13:37:09.614Z,7.90
2023-03-22T13:39:39.168Z,7.17
2023-03-22T13:44:59.844Z,7.87
2023-03-22T13:47:35.768Z,7.00
2023-03-22T13:53:08.983Z,7.37
2023-03-22T13:55:42.540Z,8.37
2023-03-22T13:58:12.763Z,7.90
2023-03-22T14:03:43.856Z,7.70
2023-03-22T14:06:15.621Z,6.80
2023-03-22T14:08:44.043Z,6.20
2023-03-22T14:11:21.451Z,6.87
2023-03-22T14:13:51.215Z,6.00
2023-03-22T14:16:21.544Z,6.00
